Time;durP1;ratioP1;P1;durP2;ratioP2;P2;SDS_P1;SDS_P2;PMS_P1;PMS_P2;Temp;Humidity;BMP_temperature;BMP_pressure;BME280_temperature;BME280_humidity;BME280_pressure;Samples;Min_cycle;Max_cycle;Signal;HPM_P1;HPM_P2
2023/06/02 00:00:39;;;;;;;;;;;;;;;21.25;62.58;100667.06;7398175;19;1409;-49
2023/06/02 00:03:08;;;;;;;;;;;;;;;21.30;62.19;100662.06;7398091;19;1853;-49
2023/06/02 00:05:37;;;;;;;;;;;;;;;21.18;62.63;100688.34;7399971;19;1347;-48
2023/06/02 00:08:06;;;;;;;;;;;;;;;21.19;62.69;100663.16;7399065;19;1947;-52
2023/06/02 00:10:34;;;;;;;;;;;;;;;21.17;62.59;100653.53;7398298;19;1477;-48
2023/06/02 00:13:05;;;;;;;;;;;;;;;21.24;62.75;100670.75;7398395;19;1502;-49
2023/06/02 00:15:34;;;;;;;;;;;;;;;21.23;62.37;100650.25;7398534;19;1543;-48
2023/06/02 00:18:03;;;;;;;;;;;;;;;21.19;62.63;100643.50;7398528;19;1516;-48
2023/06/02 00:20:31;;;;;;;;;;;;;;;21.22;62.81;100649.38;7397763;19;1261;-48
2023/06/02 00:23:00;;;;;;;;;;;;;;;21.24;62.59;100650.06;7397215;19;1867;-48
2023/06/02 00:25:28;;;;;;;;;;;;;;;21.22;62.51;100635.09;7397288;19;1611;-48
2023/06/02 00:27:57;;;;;;;;;;;;;;;21.21;62.39;100639.63;7399001;19;1026;-48
2023/06/02 00:30:28;;;;;;;;;;;;;;;21.17;62.71;100638.25;7398185;19;1616;-48
2023/06/02 00:32:57;;;;;;;;;;;;;;;21.13;62.73;100642.25;7396979;19;1836;-48
2023/06/02 00:35:25;;;;;;;;;;;;;;;21.21;62.79;100650.41;7396717;19;1809;-49
2023/06/02 00:37:54;;;;;;;;;;;;;;;21.21;62.76;100641.50;7397748;19;1782;-49
2023/06/02 00:40:23;;;;;;;;;;;;;;;21.22;62.75;100651.22;7398299;19;1391;-48
2023/06/02 00:42:51;;;;;;;;;;;;;;;21.23;62.85;100645.72;7397948;19;1859;-49
2023/06/02 00:45:20;;;;;;;;;;;;;;;21.14;62.61;100643.09;7397197;19;1885;-48
2023/06/02 00:47:51;;;;;;;;;;;;;;;21.15;62.93;100645.63;7398807;19;1651;-50
2023/06/02 00:50:19;;;;;;;;;;;;;;;21.12;62.67;100637.03;7396950;19;1378;-49
2023/06/02 00:52:48;;;;;;;;;;;;;;;21.11;63.01;100643.38;7397370;19;1531;-49
2023/06/02 00:55:16;;;;;;;;;;;;;;;21.11;62.79;100644.25;7394481;19;2006;-55
2023/06/02 00:57:44;;;;;;;;;;;;;;;21.15;62.64;100628.63;7397008;19;1809;-52
2023/06/02 01:00:14;;;;;;;;;;;;;;;21.11;62.85;100640.69;7396889;19;1379;-49
2023/06/02 01:02:42;;;;;;;;;;;;;;;21.14;62.93;100640.41;7398015;19;1861;-48
2023/06/02 01:05:14;;;;;;;;;;;;;;;21.22;62.82;100619.81;7396381;19;1852;-49
2023/06/02 01:07:44;;;;;;;;;;;;;;;21.08;63.10;100627.56;7398709;19;1825;-49
2023/06/02 01:10:14;;;;;;;;;;;;;;;21.13;62.84;100630.63;7395479;19;1394;-48
2023/06/02 01:12:42;;;;;;;;;;;;;;;21.16;62.95;100625.78;7397719;19;1477;-48
2023/06/02 01:15:11;;;;;;;;;;;;;;;21.08;62.99;100628.41;7397595;19;1742;-48
2023/06/02 01:17:45;;;;;;;;;;;;;;;21.13;62.96;100630.63;7397116;19;1979;-49
2023/06/02 01:20:21;;;;;;;;;;;;;;;21.11;62.86;100632.63;7396468;19;1715;-48
2023/06/02 01:22:56;;;;;;;;;;;;;;;21.09;63.12;100623.88;7396448;19;1838;-48
2023/06/02 01:25:28;;;;;;;;;;;;;;;21.11;63.16;100617.34;7396001;19;1488;-49
2023/06/02 01:27:59;;;;;;;;;;;;;;;21.09;63.07;100631.94;7398215;19;1477;-49
2023/06/02 01:30:28;;;;;;;;;;;;;;;21.01;63.02;100622.81;7398040;19;1038;-49
2023/06/02 01:33:01;;;;;;;;;;;;;;;21.04;63.30;100633.22;7395995;19;1579;-49
2023/06/02 01:35:33;;;;;;;;;;;;;;;21.09;62.90;100623.88;7395058;19;1447;-49
2023/06/02 01:38:02;;;;;;;;;;;;;;;21.07;63.28;100648.25;7394598;19;1626;-49
2023/06/02 01:40:33;;;;;;;;;;;;;;;20.98;63.43;100623.09;7395691;19;1464;-49
2023/06/02 01:43:02;;;;;;;;;;;;;;;21.00;63.17;100628.31;7396189;19;1859;-49
2023/06/02 01:45:31;;;;;;;;;;;;;;;21.03;63.36;100620.81;7395439;19;1643;-49
2023/06/02 01:48:04;;;;;;;;;;;;;;;20.97;63.74;100628.63;7396196;19;1617;-48
2023/06/02 01:50:32;;;;;;;;;;;;;;;21.08;63.14;100614.13;7400231;19;1647;-49
2023/06/02 01:53:01;;;;;;;;;;;;;;;21.03;63.32;100618.13;7402491;19;1130;-49
2023/06/02 01:55:29;;;;;;;;;;;;;;;21.00;63.27;100621.09;7402638;19;1190;-48
2023/06/02 01:58:00;;;;;;;;;;;;;;;21.04;63.10;100622.47;7402506;19;1528;-49
2023/06/02 02:00:28;;;;;;;;;;;;;;;21.05;63.15;100626.03;7402778;19;1953;-49
2023/06/02 02:02:57;;;;;;;;;;;;;;;21.03;63.39;100618.13;7402133;19;1857;-49
2023/06/02 02:05:25;;;;;;;;;;;;;;;21.04;63.52;100617.09;7402650;19;1627;-49
2023/06/02 02:07:54;;;;;;;;;;;;;;;20.97;63.51;100621.41;7402021;19;2004;-49
2023/06/02 02:10:22;;;;;;;;;;;;;;;21.05;63.46;100629.56;7402366;19;1933;-49
2023/06/02 02:12:50;;;;;;;;;;;;;;;21.05;63.09;100617.97;7401706;19;1746;-49
2023/06/02 02:15:21;;;;;;;;;;;;;;;21.06;63.22;100623.19;7403535;19;1406;-49
2023/06/02 02:17:50;;;;;;;;;;;;;;;20.95;63.48;100601.91;7403589;19;1753;-49
2023/06/02 02:20:19;;;;;;;;;;;;;;;21.06;63.16;100614.28;7401912;19;1485;-49
2023/06/02 02:22:48;;;;;;;;;;;;;;;20.99;63.28;100614.03;7402521;19;1845;-49
2023/06/02 02:25:17;;;;;;;;;;;;;;;20.98;63.34;100606.97;7401020;19;1770;-49
2023/06/02 02:27:45;;;;;;;;;;;;;;;21.02;63.11;100624.47;7404432;19;968;-49
2023/06/02 02:30:13;;;;;;;;;;;;;;;21.00;63.29;100615.72;7402243;19;1858;-50
2023/06/02 02:32:46;;;;;;;;;;;;;;;20.95;63.23;100601.03;7400145;19;1833;-49
2023/06/02 02:35:15;;;;;;;;;;;;;;;20.94;63.42;100605.59;7402682;19;1399;-49
2023/06/02 02:37:44;;;;;;;;;;;;;;;21.00;63.00;100607.66;7401736;19;1484;-49
2023/06/02 02:40:12;;;;;;;;;;;;;;;20.93;63.11;100617.34;7400908;19;1252;-49
2023/06/02 02:42:40;;;;;;;;;;;;;;;21.01;63.14;100603.97;7401763;19;1854;-49
2023/06/02 02:45:09;;;;;;;;;;;;;;;21.02;63.45;100624.47;7401096;19;1502;-49
2023/06/02 02:47:38;;;;;;;;;;;;;;;20.99;63.20;100623.94;7401568;19;1292;-49
2023/06/02 02:50:09;;;;;;;;;;;;;;;21.00;63.32;100609.50;7400583;19;1209;-48
2023/06/02 02:52:38;;;;;;;;;;;;;;;20.99;63.11;100611.34;7401023;19;1178;-49
2023/06/02 02:55:07;;;;;;;;;;;;;;;21.01;63.41;100611.22;7401944;19;1543;-49
2023/06/02 02:57:36;;;;;;;;;;;;;;;21.05;63.21;100618.81;7402877;19;1734;-48
2023/06/02 03:00:07;;;;;;;;;;;;;;;20.92;63.71;100612.94;7401146;19;1785;-49
2023/06/02 03:02:35;;;;;;;;;;;;;;;20.98;63.53;100614.19;7402542;19;1885;-48
2023/06/02 03:05:05;;;;;;;;;;;;;;;20.97;63.26;100616.03;7400613;19;1869;-49
2023/06/02 03:07:39;;;;;;;;;;;;;;;20.98;63.73;100616.88;7401962;19;1764;-49
2023/06/02 03:10:08;;;;;;;;;;;;;;;21.01;63.55;100614.75;7402001;19;1524;-48
2023/06/02 03:12:36;;;;;;;;;;;;;;;21.00;63.49;100604.97;7402008;19;1726;-49
2023/06/02 03:15:05;;;;;;;;;;;;;;;20.98;63.49;100622.25;7401063;19;1403;-48
2023/06/02 03:17:34;;;;;;;;;;;;;;;20.94;63.52;100621.72;7400859;19;1765;-49
2023/06/02 03:20:03;;;;;;;;;;;;;;;21.08;63.16;100624.88;7402119;19;1039;-48
2023/06/02 03:22:33;;;;;;;;;;;;;;;21.02;63.54;100624.47;7398351;19;1870;-48
2023/06/02 03:25:05;;;;;;;;;;;;;;;21.10;63.26;100617.50;7398950;19;1603;-48
2023/06/02 03:27:33;;;;;;;;;;;;;;;21.13;63.17;100620.75;7400463;19;1647;-49
2023/06/02 03:30:02;;;;;;;;;;;;;;;21.23;62.89;100620.66;7400204;19;1511;-49
2023/06/02 03:32:30;;;;;;;;;;;;;;;21.24;62.50;100617.81;7400194;19;1569;-47
2023/06/02 03:34:59;;;;;;;;;;;;;;;21.35;62.40;100619.44;7400253;19;1237;-48
2023/06/02 03:37:27;;;;;;;;;;;;;;;21.39;62.34;100610.03;7399570;19;1550;-48
2023/06/02 03:39:55;;;;;;;;;;;;;;;21.43;62.04;100608.75;7400425;19;1474;-49
2023/06/02 03:42:26;;;;;;;;;;;;;;;21.35;62.15;100613.22;7399652;19;1201;-48
2023/06/02 03:44:54;;;;;;;;;;;;;;;21.41;62.07;100610.75;7397315;19;1939;-49
2023/06/02 03:47:23;;;;;;;;;;;;;;;21.38;62.12;100613.72;7400477;19;1531;-49
2023/06/02 03:49:51;;;;;;;;;;;;;;;21.47;61.82;100611.13;7400289;19;1489;-48
2023/06/02 03:52:19;;;;;;;;;;;;;;;21.42;61.85;100593.56;7398978;19;1841;-49
2023/06/02 03:54:49;;;;;;;;;;;;;;;21.42;61.65;100603.50;7398663;19;1386;-47
2023/06/02 03:57:17;;;;;;;;;;;;;;;21.41;61.98;100596.44;7398070;19;1806;-48
2023/06/02 03:59:48;;;;;;;;;;;;;;;21.43;61.88;100611.47;7399079;19;1734;-50
2023/06/02 04:02:17;;;;;;;;;;;;;;;21.36;62.14;100586.13;7401123;19;968;-48
2023/06/02 04:04:45;;;;;;;;;;;;;;;21.44;62.41;100593.47;7395829;19;1857;-48
2023/06/02 04:07:13;;;;;;;;;;;;;;;21.47;62.06;100600.38;7399345;19;1383;-48
2023/06/02 04:09:42;;;;;;;;;;;;;;;21.49;62.72;100598.38;7399546;19;1508;-48
2023/06/02 04:12:10;;;;;;;;;;;;;;;21.50;62.44;100605.44;7396339;19;1449;-48
2023/06/02 04:14:38;;;;;;;;;;;;;;;21.25;63.61;100603.38;7399438;19;1727;-48
2023/06/02 04:17:09;;;;;;;;;;;;;;;21.14;64.40;100613.50;7399703;19;1319;-49
2023/06/02 04:19:38;;;;;;;;;;;;;;;21.15;63.70;100609.81;7395656;19;1485;-48
2023/06/02 04:22:06;;;;;;;;;;;;;;;21.00;63.74;100599.59;7398397;19;1472;-48
2023/06/02 04:24:35;;;;;;;;;;;;;;;20.94;63.76;100607.44;7395244;19;1870;-47
2023/06/02 04:27:03;;;;;;;;;;;;;;;20.98;63.99;100611.50;7397637;19;1283;-47
2023/06/02 04:29:31;;;;;;;;;;;;;;;21.22;63.44;100597.44;7397531;19;2205;-47
2023/06/02 04:32:01;;;;;;;;;;;;;;;21.28;63.97;100602.22;7398250;19;1336;-48
2023/06/02 04:34:32;;;;;;;;;;;;;;;21.31;63.66;100595.66;7396317;19;1543;-48
2023/06/02 04:37:00;;;;;;;;;;;;;;;21.40;63.79;100602.81;7398912;19;1309;-48
2023/06/02 04:39:29;;;;;;;;;;;;;;;21.58;63.26;100600.13;7397219;19;1324;-48
2023/06/02 04:41:59;;;;;;;;;;;;;;;21.38;63.85;100608.34;7397936;19;1572;-48
2023/06/02 04:44:27;;;;;;;;;;;;;;;21.40;63.80;100609.03;7395254;19;1854;-48
2023/06/02 04:46:55;;;;;;;;;;;;;;;21.49;63.13;100604.63;7394017;19;2043;-48
2023/06/02 04:49:24;;;;;;;;;;;;;;;21.52;63.50;100615.03;7395113;19;1619;-48
2023/06/02 04:51:55;;;;;;;;;;;;;;;21.66;63.21;100602.88;7393268;19;1725;-48
2023/06/02 04:54:23;;;;;;;;;;;;;;;21.75;62.86;100585.81;7396309;19;1262;-49
2023/06/02 04:56:52;;;;;;;;;;;;;;;21.80;63.14;100602.31;7394697;19;1043;-49
2023/06/02 04:59:21;;;;;;;;;;;;;;;21.79;62.89;100600.63;7393515;19;1110;-49
2023/06/02 05:01:49;;;;;;;;;;;;;;;21.79;62.90;100592.56;7393671;19;1556;-48
2023/06/02 05:04:19;;;;;;;;;;;;;;;21.75;62.99;100590.34;7389988;19;1865;-48
2023/06/02 05:06:47;;;;;;;;;;;;;;;21.57;63.49;100590.38;7391776;19;1440;-48
2023/06/02 05:09:18;;;;;;;;;;;;;;;21.67;63.46;100596.50;7396310;19;1469;-47
2023/06/02 05:11:47;;;;;;;;;;;;;;;21.76;63.66;100592.00;7396138;19;1837;-47
2023/06/02 05:14:15;;;;;;;;;;;;;;;21.70;63.45;100596.19;7396790;19;1869;-49
2023/06/02 05:16:45;;;;;;;;;;;;;;;21.85;62.95;100594.59;7395264;19;1869;-46
2023/06/02 05:19:13;;;;;;;;;;;;;;;21.88;63.21;100582.66;7391462;19;1735;-48
2023/06/02 05:21:42;;;;;;;;;;;;;;;21.69;64.28;100597.19;7392090;19;1718;-47
2023/06/02 05:24:10;;;;;;;;;;;;;;;22.01;63.27;100593.03;7388706;19;1842;-48
2023/06/02 05:26:42;;;;;;;;;;;;;;;22.20;62.68;100591.94;7394999;19;1734;-49
2023/06/02 05:29:10;;;;;;;;;;;;;;;22.20;62.45;100592.78;7396159;19;1730;-47
2023/06/02 05:31:38;;;;;;;;;;;;;;;;;;7396786;19;1537;-48
2023/06/02 05:34:06;;;;;;;;;;;;;;;22.35;61.83;100590.34;7395379;19;1594;-48
2023/06/02 05:36:35;;;;;;;;;;;;;;;22.19;62.57;100603.72;7392478;19;1137;-48
2023/06/02 05:39:03;;;;;;;;;;;;;;;22.10;62.48;100601.97;7392540;19;1665;-49
2023/06/02 05:41:32;;;;;;;;;;;;;;;22.15;62.30;100599.66;7391842;19;1461;-48
2023/06/02 05:44:03;;;;;;;;;;;;;;;22.22;62.14;100593.47;7389750;19;1837;-48
2023/06/02 05:46:31;;;;;;;;;;;;;;;22.10;62.47;100597.44;7390942;19;1487;-48
2023/06/02 05:49:00;;;;;;;;;;;;;;;21.85;63.38;100602.69;7392868;19;1719;-48
2023/06/02 05:51:28;;;;;;;;;;;;;;;22.01;62.56;100601.09;6880877;19;9999774;-48
2023/06/02 05:53:56;;;;;;;;;;;;;;;22.27;61.86;100606.50;7386975;19;1763;-48
2023/06/02 05:56:25;;;;;;;;;;;;;;;22.44;61.57;100600.19;7388599;19;1935;-49
2023/06/02 05:58:53;;;;;;;;;;;;;;;22.18;62.47;100608.28;7389333;19;1897;-47
2023/06/02 06:01:24;;;;;;;;;;;;;;;22.24;62.45;100602.28;7389199;19;1598;-48
2023/06/02 06:03:52;;;;;;;;;;;;;;;22.09;62.84;100601.16;7387421;19;1932;-48
2023/06/02 06:06:21;;;;;;;;;;;;;;;22.22;62.55;100600.69;7387952;19;1495;-48
2023/06/02 06:08:49;;;;;;;;;;;;;;;22.38;62.05;100602.66;7387373;19;1414;-48
2023/06/02 06:11:17;;;;;;;;;;;;;;;22.27;62.17;100597.56;7387536;19;1377;-49
2023/06/02 06:13:46;;;;;;;;;;;;;;;22.27;62.26;100598.41;7387614;19;1422;-48
2023/06/02 06:16:14;;;;;;;;;;;;;;;22.41;61.89;100594.25;7387527;19;1787;-48
2023/06/02 06:18:45;;;;;;;;;;;;;;;22.42;61.94;100609.41;7388037;19;1592;-48
2023/06/02 06:21:13;;;;;;;;;;;;;;;22.40;62.34;100603.34;7389194;19;1730;-48
2023/06/02 06:23:41;;;;;;;;;;;;;;;22.48;61.96;100599.84;7385219;19;1853;-48
2023/06/02 06:26:10;;;;;;;;;;;;;;;22.11;63.06;100593.75;7384519;19;1925;-48
2023/06/02 06:28:38;;;;;;;;;;;;;;;22.00;63.92;100594.00;7386585;19;1452;-48
2023/06/02 06:31:06;;;;;;;;;;;;;;;22.17;63.13;100590.41;7386191;19;1627;-49
2023/06/02 06:33:34;;;;;;;;;;;;;;;22.21;62.94;100583.69;7388363;19;1496;-48
2023/06/02 06:36:05;;;;;;;;;;;;;;;22.25;63.05;100586.94;7396370;19;1054;-48
2023/06/02 06:38:34;;;;;;;;;;;;;;;22.08;64.16;100575.19;7397589;19;1935;-49
2023/06/02 06:41:02;;;;;;;;;;;;;;;22.14;63.77;100576.41;7399789;19;1374;-48
2023/06/02 06:43:30;;;;;;;;;;;;;;;22.18;63.62;100589.41;7402395;19;1287;-48
2023/06/02 06:45:59;;;;;;;;;;;;;;;22.21;63.89;100586.38;7397796;19;1869;-49
2023/06/02 06:48:27;;;;;;;;;;;;;;;22.23;63.75;100581.69;7401826;19;1445;-48
2023/06/02 06:50:56;;;;;;;;;;;;;;;22.18;65.38;100581.34;7401060;19;1860;-47
2023/06/02 06:53:28;;;;;;;;;;;;;;;21.95;65.65;100581.03;7401911;19;1722;-49
2023/06/02 06:55:57;;;;;;;;;;;;;;;21.81;64.45;100585.16;7400984;19;1499;-48
2023/06/02 06:58:25;;;;;;;;;;;;;;;21.83;62.28;100585.84;7399831;19;1723;-48
2023/06/02 07:00:53;;;;;;;;;;;;;;;21.64;64.36;100580.66;7395786;19;1551;-48
2023/06/02 07:03:21;;;;;;;;;;;;;;;21.93;63.84;100580.34;7398854;19;1469;-49
2023/06/02 07:05:50;;;;;;;;;;;;;;;22.11;62.88;100579.44;7395654;19;1887;-49
2023/06/02 07:08:18;;;;;;;;;;;;;;;21.97;63.18;100581.72;7396765;19;1869;-48
2023/06/02 07:10:49;;;;;;;;;;;;;;;22.08;63.52;100585.13;7395605;19;1598;-48
2023/06/02 07:13:18;;;;;;;;;;;;;;;22.22;62.74;100582.72;7396135;19;1394;-47
2023/06/02 07:15:48;;;;;;;;;;;;;;;22.23;63.06;100591.63;7395115;19;1717;-51
2023/06/02 07:18:16;;;;;;;;;;;;;;;22.21;63.28;100581.00;7397968;19;1549;-47
2023/06/02 07:20:45;;;;;;;;;;;;;;;22.27;63.00;100581.41;7399184;19;1523;-48
2023/06/02 07:23:13;;;;;;;;;;;;;;;22.28;62.53;100581.22;7398760;19;1611;-47
2023/06/02 07:25:41;;;;;;;;;;;;;;;22.31;62.73;100585.47;7398343;19;1849;-47
2023/06/02 07:28:13;;;;;;;;;;;;;;;22.37;62.21;100587.50;7400800;19;1703;-49
2023/06/02 07:30:41;;;;;;;;;;;;;;;22.36;62.64;100591.19;7399218;19;1851;-49
2023/06/02 07:33:09;;;;;;;;;;;;;;;22.25;63.11;100595.03;7398173;19;1564;-49
2023/06/02 07:35:37;;;;;;;;;;;;;;;22.16;63.59;100602.22;7400402;19;1458;-48
2023/06/02 07:38:06;;;;;;;;;;;;;;;22.17;63.39;100625.44;7399805;19;1530;-49
2023/06/02 07:40:34;;;;;;;;;;;;;;;22.24;62.90;100594.19;7399337;19;1485;-49
2023/06/02 07:43:02;;;;;;;;;;;;;;;22.20;63.42;100606.25;7401110;19;1461;-49
2023/06/02 07:45:33;;;;;;;;;;;;;;;22.19;63.34;100601.88;7398207;19;1861;-49
2023/06/02 07:48:01;;;;;;;;;;;;;;;22.23;63.18;100587.06;7399293;19;1793;-49
2023/06/02 07:50:30;;;;;;;;;;;;;;;22.14;62.80;100597.97;7395540;19;1288;-48
2023/06/02 07:52:58;;;;;;;;;;;;;;;22.19;62.97;100601.03;7398408;19;1213;-49
2023/06/02 07:55:27;;;;;;;;;;;;;;;22.17;62.38;100593.09;7398702;19;1507;-49
2023/06/02 07:57:55;;;;;;;;;;;;;;;22.17;62.58;100585.03;7399019;19;1512;-49
2023/06/02 08:00:24;;;;;;;;;;;;;;;22.17;62.57;100590.41;7398336;19;1885;-49
2023/06/02 08:02:56;;;;;;;;;;;;;;;22.06;63.22;100596.06;7397305;19;1512;-48
2023/06/02 08:05:24;;;;;;;;;;;;;;;22.20;63.04;100582.03;7399585;19;1855;-47
2023/06/02 08:07:52;;;;;;;;;;;;;;;22.16;63.05;100588.75;7397783;19;1438;-48
2023/06/02 08:10:20;;;;;;;;;;;;;;;22.36;62.63;100578.59;7397346;19;1377;-49
2023/06/02 08:12:49;;;;;;;;;;;;;;;22.33;62.54;100580.75;7397526;19;1609;-49
2023/06/02 08:15:17;;;;;;;;;;;;;;;22.18;63.21;100567.88;7399689;19;1568;-48
2023/06/02 08:17:45;;;;;;;;;;;;;;;22.19;63.27;100574.94;7398903;19;1470;-49
2023/06/02 08:20:16;;;;;;;;;;;;;;;22.16;63.38;100590.56;7398752;19;1805;-48
2023/06/02 08:22:45;;;;;;;;;;;;;;;22.15;63.58;100586.19;7397191;19;1434;-48
2023/06/02 08:25:14;;;;;;;;;;;;;;;22.08;62.90;100577.91;7396997;19;1865;-48
2023/06/02 08:27:44;;;;;;;;;;;;;;;22.18;62.49;100583.16;7398507;19;1511;-48
2023/06/02 08:30:13;;;;;;;;;;;;;;;22.19;62.47;100574.09;7395986;19;1391;-48
2023/06/02 08:32:43;;;;;;;;;;;;;;;22.26;62.20;100571.63;7397519;19;1527;-48
2023/06/02 08:35:12;;;;;;;;;;;;;;;22.22;61.76;100573.75;7396936;19;1376;-49
2023/06/02 08:37:43;;;;;;;;;;;;;;;22.28;61.48;100566.91;7397990;19;1623;-49
2023/06/02 08:40:12;;;;;;;;;;;;;;;22.28;61.54;100575.00;7397610;19;1619;-49
2023/06/02 08:42:40;;;;;;;;;;;;;;;22.27;60.81;100566.09;7398235;19;1272;-49
2023/06/02 08:45:10;;;;;;;;;;;;;;;22.24;61.07;100580.72;7396938;19;1842;-49
2023/06/02 08:47:42;;;;;;;;;;;;;;;22.20;60.74;100571.25;7396633;19;1566;-48
2023/06/02 08:50:11;;;;;;;;;;;;;;;22.33;60.32;100564.59;7397623;19;1517;-50
2023/06/02 08:52:40;;;;;;;;;;;;;;;22.27;59.94;100558.00;7396463;19;1487;-48
2023/06/02 08:55:12;;;;;;;;;;;;;;;22.31;59.98;100572.84;7397233;19;1519;-48
2023/06/02 08:57:43;;;;;;;;;;;;;;;22.28;60.19;100578.53;7395634;19;1662;-48
2023/06/02 09:00:12;;;;;;;;;;;;;;;22.17;60.31;100566.16;7394950;19;1731;-48
2023/06/02 09:02:41;;;;;;;;;;;;;;;22.20;60.40;100570.38;7398229;19;1326;-49
2023/06/02 09:05:10;;;;;;;;;;;;;;;22.18;59.55;100565.19;7396173;19;1852;-49
2023/06/02 09:07:39;;;;;;;;;;;;;;;22.09;60.09;100568.84;7397002;19;1390;-48
2023/06/02 09:10:07;;;;;;;;;;;;;;;22.00;59.20;100556.31;7397477;19;1825;-48
2023/06/02 09:12:50;;;;;;;;;;;;;;;22.21;59.19;100559.47;7398535;19;1776;-48
2023/06/02 09:15:19;;;;;;;;;;;;;;;22.16;59.00;100561.81;7396519;19;1383;-49
2023/06/02 09:17:47;;;;;;;;;;;;;;;22.24;58.48;100551.09;7396670;19;1567;-48
2023/06/02 09:20:16;;;;;;;;;;;;;;;22.26;58.67;100539.31;7398306;19;1149;-48
2023/06/02 09:22:56;;;;;;;;;;;;;;;22.12;58.56;100548.81;7396392;19;1477;-48
2023/06/02 09:25:25;;;;;;;;;;;;;;;22.23;59.01;100554.75;7394624;19;1842;-48
2023/06/02 09:27:57;;;;;;;;;;;;;;;22.16;59.36;100551.03;7396172;19;1573;-47
2023/06/02 09:30:25;;;;;;;;;;;;;;;22.18;58.98;100546.34;7396217;19;1640;-48
2023/06/02 09:32:55;;;;;;;;;;;;;;;22.16;58.25;100547.47;7395568;19;1500;-48
2023/06/02 09:35:36;;;;;;;;;;;;;;;22.19;58.99;100542.63;7396404;19;1145;-48
2023/06/02 09:38:05;;;;;;;;;;;;;;;22.05;58.68;100544.06;7392319;19;1513;-50
2023/06/02 09:40:35;;;;;;;;;;;;;;;22.26;58.65;100550.06;7396350;19;1631;-50
2023/06/02 09:43:07;;;;;;;;;;;;;;;22.26;58.65;100537.44;7396400;19;1232;-50
2023/06/02 09:45:35;;;;;;;;;;;;;;;22.26;58.40;100537.44;7393802;19;1846;-52
2023/06/02 09:48:04;;;;;;;;;;;;;;;22.29;58.45;100531.75;7396455;19;1505;-51
2023/06/02 09:50:36;;;;;;;;;;;;;;;22.23;58.40;100529.66;7395352;19;1579;-48
2023/06/02 09:53:05;;;;;;;;;;;;;;;22.28;57.28;100519.25;7393469;19;1456;-48
2023/06/02 09:55:35;;;;;;;;;;;;;;;22.40;57.71;100527.91;7394448;19;1793;-48
2023/06/02 09:58:06;;;;;;;;;;;;;;;22.32;57.94;100517.97;7396383;19;1746;-48
2023/06/02 10:00:35;;;;;;;;;;;;;;;22.32;57.17;100509.00;7396138;19;1248;-48
2023/06/02 10:03:04;;;;;;;;;;;;;;;22.36;57.46;100507.69;7395875;19;1492;-49
2023/06/02 10:05:32;;;;;;;;;;;;;;;22.36;57.51;100515.75;7394805;19;1850;-48
2023/06/02 10:08:18;;;;;;;;;;;;;;;22.43;57.03;100506.88;7393120;19;1887;-48
2023/06/02 10:10:59;;;;;;;;;;;;;;;22.38;56.88;100487.66;7397456;19;1555;-49
2023/06/02 10:13:35;;;;;;;;;;;;;;;22.38;57.13;100509.22;7401788;19;1543;-49
2023/06/02 10:16:11;;;;;;;;;;;;;;;22.34;57.29;100498.91;7402306;19;1790;-49
2023/06/02 10:18:56;;;;;;;;;;;;;;;22.27;57.16;100501.44;7401680;19;1953;-49
2023/06/02 10:21:31;;;;;;;;;;;;;;;22.35;57.07;100489.84;7402219;19;1402;-48
2023/06/02 10:24:04;;;;;;;;;;;;;;;22.31;56.25;100483.94;7401333;19;1393;-48
2023/06/02 10:26:38;;;;;;;;;;;;;;;22.28;57.05;100491.50;7399666;19;1845;-49
2023/06/02 10:29:11;;;;;;;;;;;;;;;22.29;57.09;100493.19;7400674;19;1503;-49
2023/06/02 10:31:39;;;;;;;;;;;;;;;22.15;56.84;100478.47;7401823;19;1047;-48
2023/06/02 10:34:07;;;;;;;;;;;;;;;22.28;56.89;100480.72;7401038;19;1864;-48
2023/06/02 10:36:51;;;;;;;;;;;;;;;22.29;57.06;100459.00;7403168;19;990;-48
2023/06/02 10:39:34;;;;;;;;;;;;;;;22.34;56.49;100469.28;7401202;19;1939;-49
2023/06/02 10:42:08;;;;;;;;;;;;;;;22.43;56.05;100458.38;7399750;19;2834;-49
2023/06/02 10:44:39;;;;;;;;;;;;;;;22.31;56.08;100459.69;7398876;19;1520;-48
2023/06/02 10:47:23;;;;;;;;;;;;;;;22.41;56.37;100440.69;7398782;19;1841;-48
2023/06/02 10:49:55;;;;;;;;;;;;;;;22.41;55.15;100460.38;7401493;19;1679;-49
2023/06/02 10:52:23;;;;;;;;;;;;;;;22.36;54.23;100443.03;7401501;19;1915;-49
2023/06/02 10:55:06;;;;;;;;;;;;;;;22.30;54.32;100462.53;7402147;19;1719;-49
2023/06/02 10:57:49;;;;;;;;;;;;;;;22.28;54.81;100443.00;7401890;19;1588;-49
2023/06/02 11:00:32;;;;;;;;;;;;;;;22.31;54.58;100448.09;7401432;19;1809;-48
2023/06/02 11:03:04;;;;;;;;;;;;;;;22.35;55.19;100433.28;7401152;19;2013;-48
2023/06/02 11:05:33;;;;;;;;;;;;;;;22.29;55.09;100439.31;7401239;19;1849;-48
2023/06/02 11:08:18;;;;;;;;;;;;;;;22.30;55.36;100438.28;7399715;19;1833;-49
2023/06/02 11:10:47;;;;;;;;;;;;;;;22.21;55.68;100438.25;7400685;19;1278;-49
2023/06/02 11:13:16;;;;;;;;;;;;;;;22.27;55.60;100427.88;7400166;19;1815;-48
2023/06/02 11:16:06;;;;;;;;;;;;;;;22.43;54.73;100420.66;7398403;19;1990;-48
2023/06/02 11:18:46;;;;;;;;;;;;;;;22.39;53.58;100413.91;7399852;19;2446;-48
2023/06/02 11:21:21;;;;;;;;;;;;;;;22.35;55.12;100423.31;7398862;19;1266;-48
2023/06/02 11:23:49;;;;;;;;;;;;;;;22.43;55.24;100414.41;7399644;19;1267;-49
2023/06/02 11:26:21;;;;;;;;;;;;;;;22.37;53.97;100409.69;7398472;19;1856;-48
2023/06/02 11:28:49;;;;;;;;;;;;;;;22.40;54.18;100403.97;7400181;19;1285;-49
2023/06/02 11:31:19;;;;;;;;;;;;;;;22.36;54.23;100392.69;7400450;19;1106;-50
2023/06/02 11:33:52;;;;;;;;;;;;;;;22.36;55.36;100394.53;7399831;19;1530;-48
2023/06/02 11:36:28;;;;;;;;;;;;;;;22.42;54.77;100391.16;7400827;19;1396;-48
2023/06/02 11:39:03;;;;;;;;;;;;;;;22.37;54.68;100390.84;7399983;19;1664;-48
2023/06/02 11:41:32;;;;;;;;;;;;;;;22.38;54.97;100400.59;7400662;19;1547;-48
2023/06/02 11:44:05;;;;;;;;;;;;;;;22.30;55.61;100397.91;7401010;19;988;-48
2023/06/02 11:46:34;;;;;;;;;;;;;;;22.34;55.42;100388.47;7399424;19;1937;-48
2023/06/02 11:49:05;;;;;;;;;;;;;;;22.29;55.16;100386.28;7400219;19;1489;-48
2023/06/02 11:51:33;;;;;;;;;;;;;;;22.23;55.58;100382.38;7400216;19;1563;-48
2023/06/02 11:54:02;;;;;;;;;;;;;;;22.24;55.87;100394.88;7398964;19;1205;-49
2023/06/02 11:56:31;;;;;;;;;;;;;;;22.39;55.06;100391.53;7399378;19;1268;-48
2023/06/02 11:58:59;;;;;;;;;;;;;;;22.33;54.83;100381.41;7398225;19;1586;-49
2023/06/02 12:01:32;;;;;;;;;;;;;;;22.20;55.38;100392.63;7394438;19;1717;-49
2023/06/02 12:04:02;;;;;;;;;;;;;;;22.22;54.96;100385.22;7394106;19;1746;-48
2023/06/02 12:06:33;;;;;;;;;;;;;;;22.33;54.88;100387.63;7394728;19;1849;-49
2023/06/02 12:09:12;;;;;;;;;;;;;;;22.20;55.51;100376.47;7396119;19;1818;-49
2023/06/02 12:11:40;;;;;;;;;;;;;;;22.28;55.44;100371.13;7396263;19;1896;-49
2023/06/02 12:14:09;;;;;;;;;;;;;;;22.35;56.19;100382.91;7396184;19;1857;-49
2023/06/02 12:16:38;;;;;;;;;;;;;;;;;;7398460;19;1856;-49
2023/06/02 12:19:16;;;;;;;;;;;;;;;22.39;55.07;100369.97;7398418;19;1782;-49
2023/06/02 12:21:49;;;;;;;;;;;;;;;22.31;55.10;100375.34;7398909;19;1804;-49
2023/06/02 12:24:30;;;;;;;;;;;;;;;22.30;55.60;100360.19;7397983;19;1877;-48
2023/06/02 12:26:58;;;;;;;;;;;;;;;22.29;55.50;100362.03;7397538;19;1855;-50
2023/06/02 12:29:27;;;;;;;;;;;;;;;22.16;54.68;100348.19;7399935;19;972;-48
2023/06/02 12:31:58;;;;;;;;;;;;;;;22.17;55.79;100361.50;7399599;19;1852;-49
2023/06/02 12:34:27;;;;;;;;;;;;;;;22.18;56.16;100356.94;7396510;19;1948;-49
2023/06/02 12:36:58;;;;;;;;;;;;;;;22.13;55.04;100346.66;7398876;19;1967;-49
2023/06/02 12:39:26;;;;;;;;;;;;;;;22.11;55.15;100351.38;7399237;19;1091;-48
2023/06/02 12:41:55;;;;;;;;;;;;;;;22.32;54.70;100344.69;7397978;19;1560;-48
2023/06/02 12:44:23;;;;;;;;;;;;;;;22.38;53.87;100346.72;7397835;19;1563;-48
2023/06/02 12:46:53;;;;;;;;;;;;;;;22.37;53.27;100355.81;7398408;19;1846;-49
2023/06/02 12:49:21;;;;;;;;;;;;;;;22.48;53.27;100347.38;7398895;19;987;-48
2023/06/02 12:51:49;;;;;;;;;;;;;;;22.47;53.99;100342.19;7399045;19;1924;-49
2023/06/02 12:54:20;;;;;;;;;;;;;;;22.35;54.61;100344.38;7398890;19;1959;-49
2023/06/02 12:56:49;;;;;;;;;;;;;;;22.35;54.45;100347.06;7397662;19;1968;-48
2023/06/02 12:59:17;;;;;;;;;;;;;;;22.38;54.61;100347.56;7398082;19;1868;-49
2023/06/02 13:01:46;;;;;;;;;;;;;;;22.33;54.50;100341.00;7398337;19;1640;-49